sensor_id;sensor_type;location;lat;lon;timestamp;P1;durP1;ratioP1;P2;durP2;ratioP2
9739;SDS011;4909;42.680;26.324;2024-03-17T00:00:25;184.10;;;94.70;;
9739;SDS011;4909;42.680;26.324;2024-03-17T00:02:51;184.83;;;93.33;;
9739;SDS011;4909;42.680;26.324;2024-03-17T00:05:19;186.03;;;94.10;;
9739;SDS011;4909;42.680;26.324;2024-03-17T00:07:45;186.93;;;92.77;;
9739;SDS011;4909;42.680;26.324;2024-03-17T00:10:12;181.93;;;92.33;;
9739;SDS011;4909;42.680;26.324;2024-03-17T00:12:38;174.90;;;87.60;;
9739;SDS011;4909;42.680;26.324;2024-03-17T00:15:06;179.53;;;88.43;;
9739;SDS011;4909;42.680;26.324;2024-03-17T00:17:32;180.47;;;92.27;;
9739;SDS011;4909;42.680;26.324;2024-03-17T00:19:59;179.73;;;87.67;;
9739;SDS011;4909;42.680;26.324;2024-03-17T00:22:30;176.47;;;85.40;;
9739;SDS011;4909;42.680;26.324;2024-03-17T00:25:02;176.67;;;86.07;;
9739;SDS011;4909;42.680;26.324;2024-03-17T00:27:28;175.93;;;86.50;;
9739;SDS011;4909;42.680;26.324;2024-03-17T00:29:55;173.33;;;84.77;;
9739;SDS011;4909;42.680;26.324;2024-03-17T00:32:21;173.47;;;86.00;;
9739;SDS011;4909;42.680;26.324;2024-03-17T00:34:49;172.47;;;85.37;;
9739;SDS011;4909;42.680;26.324;2024-03-17T00:37:15;174.33;;;86.60;;
9739;SDS011;4909;42.680;26.324;2024-03-17T00:39:44;169.97;;;84.00;;
9739;SDS011;4909;42.680;26.324;2024-03-17T00:42:11;167.63;;;84.73;;
9739;SDS011;4909;42.680;26.324;2024-03-17T00:44:37;164.40;;;82.90;;
9739;SDS011;4909;42.680;26.324;2024-03-17T00:47:04;171.23;;;85.77;;
9739;SDS011;4909;42.680;26.324;2024-03-17T00:49:30;170.53;;;82.97;;
9739;SDS011;4909;42.680;26.324;2024-03-17T00:51:57;171.43;;;83.47;;
9739;SDS011;4909;42.680;26.324;2024-03-17T00:54:23;166.00;;;84.03;;
9739;SDS011;4909;42.680;26.324;2024-03-17T00:56:51;168.80;;;84.53;;
9739;SDS011;4909;42.680;26.324;2024-03-17T00:59:17;169.87;;;83.70;;
9739;SDS011;4909;42.680;26.324;2024-03-17T01:01:44;172.20;;;83.23;;
9739;SDS011;4909;42.680;26.324;2024-03-17T01:04:11;173.43;;;86.53;;
9739;SDS011;4909;42.680;26.324;2024-03-17T01:06:38;170.03;;;84.43;;
9739;SDS011;4909;42.680;26.324;2024-03-17T01:09:06;175.93;;;84.20;;
9739;SDS011;4909;42.680;26.324;2024-03-17T01:11:33;171.23;;;83.70;;
9739;SDS011;4909;42.680;26.324;2024-03-17T01:14:00;171.00;;;82.97;;
9739;SDS011;4909;42.680;26.324;2024-03-17T01:16:27;170.17;;;83.17;;
9739;SDS011;4909;42.680;26.324;2024-03-17T01:18:53;170.30;;;82.07;;
9739;SDS011;4909;42.680;26.324;2024-03-17T01:21:20;168.07;;;82.07;;
9739;SDS011;4909;42.680;26.324;2024-03-17T01:23:47;168.97;;;82.67;;
9739;SDS011;4909;42.680;26.324;2024-03-17T01:26:14;170.37;;;84.57;;
9739;SDS011;4909;42.680;26.324;2024-03-17T01:28:40;154.10;;;81.33;;
9739;SDS011;4909;42.680;26.324;2024-03-17T01:31:09;150.87;;;80.87;;
9739;SDS011;4909;42.680;26.324;2024-03-17T01:33:35;150.93;;;82.07;;
9739;SDS011;4909;42.680;26.324;2024-03-17T01:36:02;153.50;;;82.60;;
9739;SDS011;4909;42.680;26.324;2024-03-17T01:38:28;148.03;;;76.87;;
9739;SDS011;4909;42.680;26.324;2024-03-17T01:40:55;150.53;;;78.27;;
9739;SDS011;4909;42.680;26.324;2024-03-17T01:43:21;146.70;;;78.93;;
9739;SDS011;4909;42.680;26.324;2024-03-17T01:45:49;146.50;;;75.07;;
9739;SDS011;4909;42.680;26.324;2024-03-17T01:48:17;147.13;;;78.93;;
9739;SDS011;4909;42.680;26.324;2024-03-17T01:50:45;147.03;;;79.00;;
9739;SDS011;4909;42.680;26.324;2024-03-17T01:53:13;146.20;;;76.90;;
9739;SDS011;4909;42.680;26.324;2024-03-17T01:55:42;145.90;;;80.37;;
9739;SDS011;4909;42.680;26.324;2024-03-17T01:58:12;144.10;;;74.97;;
9739;SDS011;4909;42.680;26.324;2024-03-17T02:00:39;146.23;;;79.03;;
9739;SDS011;4909;42.680;26.324;2024-03-17T02:03:05;144.37;;;76.27;;
9739;SDS011;4909;42.680;26.324;2024-03-17T02:05:36;145.00;;;76.50;;
9739;SDS011;4909;42.680;26.324;2024-03-17T02:08:03;145.30;;;74.23;;
9739;SDS011;4909;42.680;26.324;2024-03-17T02:10:30;148.97;;;76.50;;
9739;SDS011;4909;42.680;26.324;2024-03-17T02:12:56;146.87;;;77.20;;
9739;SDS011;4909;42.680;26.324;2024-03-17T02:15:23;154.00;;;80.90;;
9739;SDS011;4909;42.680;26.324;2024-03-17T02:17:49;149.97;;;78.97;;
9739;SDS011;4909;42.680;26.324;2024-03-17T02:20:16;154.93;;;76.57;;
9739;SDS011;4909;42.680;26.324;2024-03-17T02:22:44;156.77;;;79.00;;
9739;SDS011;4909;42.680;26.324;2024-03-17T02:25:11;156.00;;;81.73;;
9739;SDS011;4909;42.680;26.324;2024-03-17T02:27:38;157.50;;;78.63;;
9739;SDS011;4909;42.680;26.324;2024-03-17T02:30:05;161.23;;;81.47;;
9739;SDS011;4909;42.680;26.324;2024-03-17T02:32:33;157.37;;;80.17;;
9739;SDS011;4909;42.680;26.324;2024-03-17T02:35:01;156.73;;;77.27;;
9739;SDS011;4909;42.680;26.324;2024-03-17T02:37:27;155.27;;;77.97;;
9739;SDS011;4909;42.680;26.324;2024-03-17T02:39:55;161.13;;;79.20;;
9739;SDS011;4909;42.680;26.324;2024-03-17T02:42:21;163.60;;;78.53;;
9739;SDS011;4909;42.680;26.324;2024-03-17T02:44:48;172.50;;;80.93;;
9739;SDS011;4909;42.680;26.324;2024-03-17T02:47:16;171.50;;;81.10;;
9739;SDS011;4909;42.680;26.324;2024-03-17T02:49:43;167.70;;;77.40;;
9739;SDS011;4909;42.680;26.324;2024-03-17T02:52:10;169.33;;;79.37;;
9739;SDS011;4909;42.680;26.324;2024-03-17T02:54:38;171.07;;;80.77;;
9739;SDS011;4909;42.680;26.324;2024-03-17T02:57:07;174.60;;;83.70;;
9739;SDS011;4909;42.680;26.324;2024-03-17T02:59:34;173.47;;;82.10;;
9739;SDS011;4909;42.680;26.324;2024-03-17T03:02:01;171.60;;;81.63;;
9739;SDS011;4909;42.680;26.324;2024-03-17T03:04:28;176.37;;;82.57;;
9739;SDS011;4909;42.680;26.324;2024-03-17T03:06:55;175.13;;;82.30;;
9739;SDS011;4909;42.680;26.324;2024-03-17T03:09:22;174.80;;;80.27;;
9739;SDS011;4909;42.680;26.324;2024-03-17T03:11:57;177.60;;;83.53;;
9739;SDS011;4909;42.680;26.324;2024-03-17T03:14:25;175.77;;;82.17;;
9739;SDS011;4909;42.680;26.324;2024-03-17T03:16:52;180.50;;;82.73;;
9739;SDS011;4909;42.680;26.324;2024-03-17T03:19:19;174.67;;;82.83;;
9739;SDS011;4909;42.680;26.324;2024-03-17T03:21:46;179.33;;;82.33;;
9739;SDS011;4909;42.680;26.324;2024-03-17T03:24:14;176.17;;;84.20;;
9739;SDS011;4909;42.680;26.324;2024-03-17T03:26:41;178.50;;;82.13;;
9739;SDS011;4909;42.680;26.324;2024-03-17T03:29:08;176.40;;;82.13;;
9739;SDS011;4909;42.680;26.324;2024-03-17T03:31:37;171.93;;;82.87;;
9739;SDS011;4909;42.680;26.324;2024-03-17T03:34:05;174.93;;;82.87;;
9739;SDS011;4909;42.680;26.324;2024-03-17T03:36:33;177.10;;;84.60;;
9739;SDS011;4909;42.680;26.324;2024-03-17T03:39:01;178.70;;;84.37;;
9739;SDS011;4909;42.680;26.324;2024-03-17T03:41:30;173.77;;;80.27;;
9739;SDS011;4909;42.680;26.324;2024-03-17T03:43:58;172.30;;;81.80;;
9739;SDS011;4909;42.680;26.324;2024-03-17T03:46:25;172.00;;;82.83;;
9739;SDS011;4909;42.680;26.324;2024-03-17T03:48:53;173.40;;;82.43;;
9739;SDS011;4909;42.680;26.324;2024-03-17T03:51:20;176.30;;;83.83;;
9739;SDS011;4909;42.680;26.324;2024-03-17T03:53:48;176.13;;;81.70;;
9739;SDS011;4909;42.680;26.324;2024-03-17T03:56:17;175.03;;;82.87;;
9739;SDS011;4909;42.680;26.324;2024-03-17T03:58:45;172.10;;;81.03;;
9739;SDS011;4909;42.680;26.324;2024-03-17T04:01:13;169.23;;;81.10;;
9739;SDS011;4909;42.680;26.324;2024-03-17T04:03:46;168.87;;;79.10;;
9739;SDS011;4909;42.680;26.324;2024-03-17T04:06:15;171.17;;;79.10;;
9739;SDS011;4909;42.680;26.324;2024-03-17T04:08:42;169.13;;;81.83;;
9739;SDS011;4909;42.680;26.324;2024-03-17T04:11:09;169.30;;;79.03;;
9739;SDS011;4909;42.680;26.324;2024-03-17T04:13:36;170.33;;;78.30;;
9739;SDS011;4909;42.680;26.324;2024-03-17T04:16:03;171.33;;;80.37;;
9739;SDS011;4909;42.680;26.324;2024-03-17T04:18:31;175.73;;;81.83;;
9739;SDS011;4909;42.680;26.324;2024-03-17T04:21:00;174.77;;;81.07;;
9739;SDS011;4909;42.680;26.324;2024-03-17T04:23:31;172.87;;;82.57;;
9739;SDS011;4909;42.680;26.324;2024-03-17T04:25:58;170.57;;;81.27;;
9739;SDS011;4909;42.680;26.324;2024-03-17T04:28:26;167.37;;;78.37;;
9739;SDS011;4909;42.680;26.324;2024-03-17T04:31:02;169.57;;;78.57;;
9739;SDS011;4909;42.680;26.324;2024-03-17T04:33:30;164.70;;;78.93;;
9739;SDS011;4909;42.680;26.324;2024-03-17T04:35:58;163.97;;;77.03;;
9739;SDS011;4909;42.680;26.324;2024-03-17T04:38:25;165.57;;;79.23;;
9739;SDS011;4909;42.680;26.324;2024-03-17T04:40:53;163.83;;;78.60;;
9739;SDS011;4909;42.680;26.324;2024-03-17T04:43:29;158.57;;;76.17;;
9739;SDS011;4909;42.680;26.324;2024-03-17T04:46:01;162.37;;;77.43;;
9739;SDS011;4909;42.680;26.324;2024-03-17T04:48:30;146.87;;;75.13;;
9739;SDS011;4909;42.680;26.324;2024-03-17T04:50:57;144.70;;;76.17;;
9739;SDS011;4909;42.680;26.324;2024-03-17T04:53:25;148.57;;;79.63;;
9739;SDS011;4909;42.680;26.324;2024-03-17T04:56:03;147.70;;;75.23;;
9739;SDS011;4909;42.680;26.324;2024-03-17T04:58:31;146.57;;;76.90;;
9739;SDS011;4909;42.680;26.324;2024-03-17T05:01:02;145.53;;;72.97;;
9739;SDS011;4909;42.680;26.324;2024-03-17T05:03:30;138.40;;;73.70;;
9739;SDS011;4909;42.680;26.324;2024-03-17T05:06:00;143.87;;;72.73;;
9739;SDS011;4909;42.680;26.324;2024-03-17T05:08:28;139.63;;;70.77;;
9739;SDS011;4909;42.680;26.324;2024-03-17T05:10:58;147.83;;;80.77;;
9739;SDS011;4909;42.680;26.324;2024-03-17T05:13:27;144.13;;;75.87;;
9739;SDS011;4909;42.680;26.324;2024-03-17T05:15:54;145.67;;;79.93;;
9739;SDS011;4909;42.680;26.324;2024-03-17T05:18:21;141.93;;;75.33;;
9739;SDS011;4909;42.680;26.324;2024-03-17T05:20:56;147.10;;;77.63;;
9739;SDS011;4909;42.680;26.324;2024-03-17T05:23:25;147.30;;;77.60;;
9739;SDS011;4909;42.680;26.324;2024-03-17T05:25:53;150.27;;;79.23;;
9739;SDS011;4909;42.680;26.324;2024-03-17T05:28:20;148.83;;;77.70;;
9739;SDS011;4909;42.680;26.324;2024-03-17T05:30:48;156.70;;;80.83;;
9739;SDS011;4909;42.680;26.324;2024-03-17T05:33:15;164.60;;;82.07;;
9739;SDS011;4909;42.680;26.324;2024-03-17T05:35:48;181.07;;;85.20;;
9739;SDS011;4909;42.680;26.324;2024-03-17T05:38:15;179.03;;;84.50;;
9739;SDS011;4909;42.680;26.324;2024-03-17T05:40:44;179.13;;;88.73;;
9739;SDS011;4909;42.680;26.324;2024-03-17T05:43:18;185.63;;;87.33;;
9739;SDS011;4909;42.680;26.324;2024-03-17T05:45:45;192.60;;;91.90;;
9739;SDS011;4909;42.680;26.324;2024-03-17T05:48:14;201.47;;;95.10;;
9739;SDS011;4909;42.680;26.324;2024-03-17T05:50:40;201.97;;;95.80;;
9739;SDS011;4909;42.680;26.324;2024-03-17T05:53:07;202.73;;;95.63;;
9739;SDS011;4909;42.680;26.324;2024-03-17T05:55:34;203.37;;;94.70;;
9739;SDS011;4909;42.680;26.324;2024-03-17T05:58:02;204.93;;;100.27;;
9739;SDS011;4909;42.680;26.324;2024-03-17T06:00:29;205.07;;;98.60;;
9739;SDS011;4909;42.680;26.324;2024-03-17T06:02:56;200.37;;;95.30;;
9739;SDS011;4909;42.680;26.324;2024-03-17T06:05:26;200.97;;;99.23;;
9739;SDS011;4909;42.680;26.324;2024-03-17T06:07:53;205.80;;;103.23;;
9739;SDS011;4909;42.680;26.324;2024-03-17T06:10:20;207.87;;;100.87;;
9739;SDS011;4909;42.680;26.324;2024-03-17T06:12:49;207.20;;;100.00;;
9739;SDS011;4909;42.680;26.324;2024-03-17T06:15:17;213.47;;;105.10;;
9739;SDS011;4909;42.680;26.324;2024-03-17T06:17:46;236.20;;;108.53;;
9739;SDS011;4909;42.680;26.324;2024-03-17T06:20:13;257.90;;;115.13;;
9739;SDS011;4909;42.680;26.324;2024-03-17T06:22:41;275.27;;;122.57;;
9739;SDS011;4909;42.680;26.324;2024-03-17T06:25:08;287.30;;;139.23;;
9739;SDS011;4909;42.680;26.324;2024-03-17T06:27:35;296.83;;;154.23;;
9739;SDS011;4909;42.680;26.324;2024-03-17T06:30:02;288.80;;;154.20;;
9739;SDS011;4909;42.680;26.324;2024-03-17T06:32:30;290.10;;;147.50;;
9739;SDS011;4909;42.680;26.324;2024-03-17T06:34:58;291.87;;;153.87;;
9739;SDS011;4909;42.680;26.324;2024-03-17T06:37:25;300.57;;;160.80;;
9739;SDS011;4909;42.680;26.324;2024-03-17T06:39:53;305.97;;;158.97;;
9739;SDS011;4909;42.680;26.324;2024-03-17T06:42:20;314.77;;;169.43;;
9739;SDS011;4909;42.680;26.324;2024-03-17T06:44:47;316.10;;;180.47;;
9739;SDS011;4909;42.680;26.324;2024-03-17T06:47:14;323.50;;;197.93;;
9739;SDS011;4909;42.680;26.324;2024-03-17T06:49:41;329.17;;;203.50;;
9739;SDS011;4909;42.680;26.324;2024-03-17T06:52:08;332.80;;;213.20;;
9739;SDS011;4909;42.680;26.324;2024-03-17T06:54:36;334.97;;;248.13;;
9739;SDS011;4909;42.680;26.324;2024-03-17T06:57:06;336.10;;;249.70;;
9739;SDS011;4909;42.680;26.324;2024-03-17T06:59:33;339.73;;;268.73;;
9739;SDS011;4909;42.680;26.324;2024-03-17T07:02:00;348.90;;;299.03;;
9739;SDS011;4909;42.680;26.324;2024-03-17T07:04:27;341.17;;;287.40;;
9739;SDS011;4909;42.680;26.324;2024-03-17T07:06:54;346.93;;;283.27;;
9739;SDS011;4909;42.680;26.324;2024-03-17T07:09:21;346.60;;;295.07;;
9739;SDS011;4909;42.680;26.324;2024-03-17T07:11:48;350.63;;;305.53;;
9739;SDS011;4909;42.680;26.324;2024-03-17T07:14:17;351.87;;;310.50;;
9739;SDS011;4909;42.680;26.324;2024-03-17T07:16:44;353.87;;;312.37;;
9739;SDS011;4909;42.680;26.324;2024-03-17T07:19:11;350.37;;;307.47;;
9739;SDS011;4909;42.680;26.324;2024-03-17T07:21:38;358.83;;;319.70;;
9739;SDS011;4909;42.680;26.324;2024-03-17T07:24:05;373.93;;;334.33;;
9739;SDS011;4909;42.680;26.324;2024-03-17T07:26:32;381.40;;;341.70;;
9739;SDS011;4909;42.680;26.324;2024-03-17T07:28:59;389.00;;;349.27;;
9739;SDS011;4909;42.680;26.324;2024-03-17T07:31:28;394.10;;;354.37;;
9739;SDS011;4909;42.680;26.324;2024-03-17T07:33:55;384.63;;;344.93;;
9739;SDS011;4909;42.680;26.324;2024-03-17T07:36:22;401.30;;;361.40;;
9739;SDS011;4909;42.680;26.324;2024-03-17T07:38:50;402.97;;;362.77;;
9739;SDS011;4909;42.680;26.324;2024-03-17T07:41:17;419.13;;;379.03;;
9739;SDS011;4909;42.680;26.324;2024-03-17T07:43:45;423.77;;;383.37;;
9739;SDS011;4909;42.680;26.324;2024-03-17T07:46:12;482.47;;;440.70;;
9739;SDS011;4909;42.680;26.324;2024-03-17T07:48:41;426.30;;;385.93;;
9739;SDS011;4909;42.680;26.324;2024-03-17T07:51:09;406.50;;;366.27;;
9739;SDS011;4909;42.680;26.324;2024-03-17T07:53:38;425.63;;;385.20;;
9739;SDS011;4909;42.680;26.324;2024-03-17T07:56:06;428.77;;;388.13;;
9739;SDS011;4909;42.680;26.324;2024-03-17T07:58:36;452.13;;;411.57;;
9739;SDS011;4909;42.680;26.324;2024-03-17T08:01:04;443.97;;;403.10;;
9739;SDS011;4909;42.680;26.324;2024-03-17T08:03:32;467.90;;;427.40;;
9739;SDS011;4909;42.680;26.324;2024-03-17T08:06:02;441.90;;;401.43;;
9739;SDS011;4909;42.680;26.324;2024-03-17T08:08:31;446.77;;;406.10;;
9739;SDS011;4909;42.680;26.324;2024-03-17T08:10:58;433.63;;;393.37;;
9739;SDS011;4909;42.680;26.324;2024-03-17T08:13:25;429.93;;;389.53;;
9739;SDS011;4909;42.680;26.324;2024-03-17T08:15:55;436.47;;;395.83;;
9739;SDS011;4909;42.680;26.324;2024-03-17T08:18:23;426.00;;;385.77;;
9739;SDS011;4909;42.680;26.324;2024-03-17T08:20:50;417.43;;;377.33;;
9739;SDS011;4909;42.680;26.324;2024-03-17T08:23:20;425.03;;;384.87;;
9739;SDS011;4909;42.680;26.324;2024-03-17T08:25:51;399.47;;;359.57;;
9739;SDS011;4909;42.680;26.324;2024-03-17T08:28:19;371.80;;;332.30;;
9739;SDS011;4909;42.680;26.324;2024-03-17T08:30:50;361.43;;;322.30;;
9739;SDS011;4909;42.680;26.324;2024-03-17T08:33:18;348.83;;;292.63;;
9739;SDS011;4909;42.680;26.324;2024-03-17T08:35:52;346.77;;;283.53;;
9739;SDS011;4909;42.680;26.324;2024-03-17T08:38:21;339.07;;;255.60;;
9739;SDS011;4909;42.680;26.324;2024-03-17T08:40:49;338.30;;;238.70;;
9739;SDS011;4909;42.680;26.324;2024-03-17T08:43:16;331.10;;;234.00;;
9739;SDS011;4909;42.680;26.324;2024-03-17T08:45:44;327.37;;;230.07;;
9739;SDS011;4909;42.680;26.324;2024-03-17T08:48:11;329.30;;;224.13;;
9739;SDS011;4909;42.680;26.324;2024-03-17T08:50:38;325.80;;;223.37;;
9739;SDS011;4909;42.680;26.324;2024-03-17T08:53:05;320.20;;;204.23;;
9739;SDS011;4909;42.680;26.324;2024-03-17T08:55:34;321.13;;;191.90;;
9739;SDS011;4909;42.680;26.324;2024-03-17T08:58:01;328.53;;;210.57;;
9739;SDS011;4909;42.680;26.324;2024-03-17T09:00:28;329.63;;;225.90;;
9739;SDS011;4909;42.680;26.324;2024-03-17T09:02:57;337.77;;;245.70;;
9739;SDS011;4909;42.680;26.324;2024-03-17T09:05:24;336.53;;;237.20;;
9739;SDS011;4909;42.680;26.324;2024-03-17T09:07:50;340.03;;;255.13;;
9739;SDS011;4909;42.680;26.324;2024-03-17T09:10:17;344.07;;;272.37;;
9739;SDS011;4909;42.680;26.324;2024-03-17T09:12:46;346.73;;;290.33;;
9739;SDS011;4909;42.680;26.324;2024-03-17T09:15:13;350.87;;;293.97;;
9739;SDS011;4909;42.680;26.324;2024-03-17T09:17:40;349.07;;;287.70;;
9739;SDS011;4909;42.680;26.324;2024-03-17T09:20:07;350.33;;;294.67;;
9739;SDS011;4909;42.680;26.324;2024-03-17T09:22:40;352.07;;;296.20;;
9739;SDS011;4909;42.680;26.324;2024-03-17T09:25:07;349.00;;;294.10;;
9739;SDS011;4909;42.680;26.324;2024-03-17T09:27:34;352.80;;;304.97;;
9739;SDS011;4909;42.680;26.324;2024-03-17T09:30:03;354.37;;;308.13;;
9739;SDS011;4909;42.680;26.324;2024-03-17T09:32:34;347.67;;;289.73;;
9739;SDS011;4909;42.680;26.324;2024-03-17T09:35:01;345.63;;;287.57;;
9739;SDS011;4909;42.680;26.324;2024-03-17T09:37:28;341.57;;;272.83;;
9739;SDS011;4909;42.680;26.324;2024-03-17T09:39:56;345.23;;;258.87;;
9739;SDS011;4909;42.680;26.324;2024-03-17T09:42:25;339.40;;;250.10;;
9739;SDS011;4909;42.680;26.324;2024-03-17T09:44:53;336.67;;;245.03;;
9739;SDS011;4909;42.680;26.324;2024-03-17T09:47:24;333.23;;;235.17;;
9739;SDS011;4909;42.680;26.324;2024-03-17T09:49:51;331.53;;;222.97;;
9739;SDS011;4909;42.680;26.324;2024-03-17T09:52:20;337.10;;;225.60;;
9739;SDS011;4909;42.680;26.324;2024-03-17T09:54:50;327.10;;;215.77;;
9739;SDS011;4909;42.680;26.324;2024-03-17T09:57:24;330.87;;;221.63;;
9739;SDS011;4909;42.680;26.324;2024-03-17T09:59:51;323.40;;;211.23;;
9739;SDS011;4909;42.680;26.324;2024-03-17T10:02:20;328.97;;;211.13;;
9739;SDS011;4909;42.680;26.324;2024-03-17T10:04:49;321.87;;;203.37;;
9739;SDS011;4909;42.680;26.324;2024-03-17T10:07:16;326.87;;;211.27;;
9739;SDS011;4909;42.680;26.324;2024-03-17T10:09:43;326.63;;;204.90;;
9739;SDS011;4909;42.680;26.324;2024-03-17T10:12:26;328.63;;;209.97;;
9739;SDS011;4909;42.680;26.324;2024-03-17T10:14:59;325.87;;;209.50;;
9739;SDS011;4909;42.680;26.324;2024-03-17T10:17:30;322.43;;;203.13;;
9739;SDS011;4909;42.680;26.324;2024-03-17T10:20:12;323.27;;;205.17;;
9739;SDS011;4909;42.680;26.324;2024-03-17T10:25:27;320.03;;;201.17;;
9739;SDS011;4909;42.680;26.324;2024-03-17T10:27:55;317.50;;;199.80;;
9739;SDS011;4909;42.680;26.324;2024-03-17T10:30:23;319.23;;;201.53;;
9739;SDS011;4909;42.680;26.324;2024-03-17T10:32:55;321.67;;;206.77;;
9739;SDS011;4909;42.680;26.324;2024-03-17T10:35:28;322.53;;;211.03;;
9739;SDS011;4909;42.680;26.324;2024-03-17T10:37:57;323.37;;;209.97;;
9739;SDS011;4909;42.680;26.324;2024-03-17T10:40:25;320.23;;;213.97;;
9739;SDS011;4909;42.680;26.324;2024-03-17T10:42:54;324.47;;;215.60;;
9739;SDS011;4909;42.680;26.324;2024-03-17T10:45:22;328.07;;;225.27;;
9739;SDS011;4909;42.680;26.324;2024-03-17T10:47:50;320.07;;;212.20;;
9739;SDS011;4909;42.680;26.324;2024-03-17T10:50:18;325.67;;;217.47;;
9739;SDS011;4909;42.680;26.324;2024-03-17T10:52:48;317.63;;;209.70;;
9739;SDS011;4909;42.680;26.324;2024-03-17T10:55:20;318.50;;;216.70;;
9739;SDS011;4909;42.680;26.324;2024-03-17T10:57:49;319.67;;;209.43;;
9739;SDS011;4909;42.680;26.324;2024-03-17T11:00:18;319.90;;;210.60;;
9739;SDS011;4909;42.680;26.324;2024-03-17T11:02:47;322.07;;;215.60;;
9739;SDS011;4909;42.680;26.324;2024-03-17T11:05:17;317.53;;;205.63;;
9739;SDS011;4909;42.680;26.324;2024-03-17T11:07:47;318.47;;;208.80;;
9739;SDS011;4909;42.680;26.324;2024-03-17T11:10:20;315.17;;;203.60;;
9739;SDS011;4909;42.680;26.324;2024-03-17T11:12:49;317.70;;;209.17;;
9739;SDS011;4909;42.680;26.324;2024-03-17T11:15:35;312.33;;;188.10;;
9739;SDS011;4909;42.680;26.324;2024-03-17T11:18:28;309.80;;;190.83;;
9739;SDS011;4909;42.680;26.324;2024-03-17T11:20:58;311.67;;;194.60;;
9739;SDS011;4909;42.680;26.324;2024-03-17T11:23:28;308.80;;;191.93;;
9739;SDS011;4909;42.680;26.324;2024-03-17T11:25:56;308.23;;;189.10;;
9739;SDS011;4909;42.680;26.324;2024-03-17T11:36:54;309.17;;;192.67;;
9739;SDS011;4909;42.680;26.324;2024-03-17T11:39:22;308.00;;;190.97;;
9739;SDS011;4909;42.680;26.324;2024-03-17T11:42:14;299.27;;;184.10;;
9739;SDS011;4909;42.680;26.324;2024-03-17T11:44:42;302.87;;;187.30;;
9739;SDS011;4909;42.680;26.324;2024-03-17T11:47:10;303.73;;;180.53;;
9739;SDS011;4909;42.680;26.324;2024-03-17T11:49:36;306.80;;;194.13;;
9739;SDS011;4909;42.680;26.324;2024-03-17T11:52:05;309.57;;;192.57;;
9739;SDS011;4909;42.680;26.324;2024-03-17T11:54:39;311.73;;;194.47;;
9739;SDS011;4909;42.680;26.324;2024-03-17T11:57:08;297.67;;;199.03;;
9739;SDS011;4909;42.680;26.324;2024-03-17T11:59:35;303.23;;;205.30;;
9739;SDS011;4909;42.680;26.324;2024-03-17T12:02:09;299.13;;;201.10;;
9739;SDS011;4909;42.680;26.324;2024-03-17T12:04:38;311.00;;;197.30;;
9739;SDS011;4909;42.680;26.324;2024-03-17T12:07:09;312.87;;;198.40;;
9739;SDS011;4909;42.680;26.324;2024-03-17T12:09:38;319.80;;;194.20;;
9739;SDS011;4909;42.680;26.324;2024-03-17T12:12:09;313.50;;;198.57;;
9739;SDS011;4909;42.680;26.324;2024-03-17T12:14:36;318.40;;;202.17;;
9739;SDS011;4909;42.680;26.324;2024-03-17T12:17:04;322.83;;;210.13;;
9739;SDS011;4909;42.680;26.324;2024-03-17T12:19:32;321.90;;;202.43;;
9739;SDS011;4909;42.680;26.324;2024-03-17T12:22:00;319.90;;;206.73;;
9739;SDS011;4909;42.680;26.324;2024-03-17T12:24:28;328.27;;;218.47;;
9739;SDS011;4909;42.680;26.324;2024-03-17T12:26:57;320.23;;;212.07;;
9739;SDS011;4909;42.680;26.324;2024-03-17T12:29:25;321.80;;;206.63;;
9739;SDS011;4909;42.680;26.324;2024-03-17T12:31:56;321.93;;;210.23;;
9739;SDS011;4909;42.680;26.324;2024-03-17T12:34:25;328.50;;;217.97;;
9739;SDS011;4909;42.680;26.324;2024-03-17T12:36:53;328.30;;;225.90;;
9739;SDS011;4909;42.680;26.324;2024-03-17T12:39:21;331.13;;;233.67;;
9739;SDS011;4909;42.680;26.324;2024-03-17T12:42:03;325.67;;;219.90;;
9739;SDS011;4909;42.680;26.324;2024-03-17T12:44:31;323.03;;;212.73;;
9739;SDS011;4909;42.680;26.324;2024-03-17T12:46:59;332.80;;;224.90;;
9739;SDS011;4909;42.680;26.324;2024-03-17T12:49:26;326.00;;;213.10;;
9739;SDS011;4909;42.680;26.324;2024-03-17T12:51:54;327.50;;;218.97;;
9739;SDS011;4909;42.680;26.324;2024-03-17T12:54:21;325.13;;;220.43;;
9739;SDS011;4909;42.680;26.324;2024-03-17T12:56:50;324.90;;;224.80;;
9739;SDS011;4909;42.680;26.324;2024-03-17T12:59:40;323.47;;;217.77;;
9739;SDS011;4909;42.680;26.324;2024-03-17T13:02:25;327.27;;;218.60;;
9739;SDS011;4909;42.680;26.324;2024-03-17T13:05:05;325.73;;;218.63;;
9739;SDS011;4909;42.680;26.324;2024-03-17T13:07:43;332.13;;;220.23;;
9739;SDS011;4909;42.680;26.324;2024-03-17T13:10:12;327.17;;;225.90;;
9739;SDS011;4909;42.680;26.324;2024-03-17T13:12:39;323.07;;;223.17;;
9739;SDS011;4909;42.680;26.324;2024-03-17T13:15:10;327.67;;;216.70;;
9739;SDS011;4909;42.680;26.324;2024-03-17T13:17:38;322.73;;;219.43;;
9739;SDS011;4909;42.680;26.324;2024-03-17T13:20:06;324.23;;;217.20;;
9739;SDS011;4909;42.680;26.324;2024-03-17T13:22:40;322.53;;;221.33;;
9739;SDS011;4909;42.680;26.324;2024-03-17T13:25:13;319.93;;;209.47;;
9739;SDS011;4909;42.680;26.324;2024-03-17T13:27:42;326.50;;;210.43;;
9739;SDS011;4909;42.680;26.324;2024-03-17T13:30:12;321.53;;;209.77;;
9739;SDS011;4909;42.680;26.324;2024-03-17T13:32:39;323.83;;;214.70;;
9739;SDS011;4909;42.680;26.324;2024-03-17T13:35:13;320.33;;;206.47;;
9739;SDS011;4909;42.680;26.324;2024-03-17T13:37:42;318.63;;;199.87;;
9739;SDS011;4909;42.680;26.324;2024-03-17T13:40:09;323.03;;;208.37;;
9739;SDS011;4909;42.680;26.324;2024-03-17T13:42:38;318.70;;;206.83;;
9739;SDS011;4909;42.680;26.324;2024-03-17T13:45:05;313.27;;;201.17;;
9739;SDS011;4909;42.680;26.324;2024-03-17T13:47:39;315.23;;;196.83;;
9739;SDS011;4909;42.680;26.324;2024-03-17T13:50:07;314.20;;;199.53;;
9739;SDS011;4909;42.680;26.324;2024-03-17T13:52:38;309.43;;;194.17;;
9739;SDS011;4909;42.680;26.324;2024-03-17T13:55:05;309.03;;;198.70;;
9739;SDS011;4909;42.680;26.324;2024-03-17T13:57:38;313.67;;;205.53;;
9739;SDS011;4909;42.680;26.324;2024-03-17T14:00:05;309.83;;;200.60;;
9739;SDS011;4909;42.680;26.324;2024-03-17T14:02:33;307.47;;;190.87;;
9739;SDS011;4909;42.680;26.324;2024-03-17T14:05:01;306.77;;;193.17;;
9739;SDS011;4909;42.680;26.324;2024-03-17T14:07:32;306.80;;;194.77;;
9739;SDS011;4909;42.680;26.324;2024-03-17T14:10:00;304.67;;;198.27;;
9739;SDS011;4909;42.680;26.324;2024-03-17T14:12:27;303.50;;;191.77;;
9739;SDS011;4909;42.680;26.324;2024-03-17T14:14:54;309.00;;;196.53;;
9739;SDS011;4909;42.680;26.324;2024-03-17T14:17:21;299.63;;;192.03;;
9739;SDS011;4909;42.680;26.324;2024-03-17T14:19:48;298.57;;;190.87;;
9739;SDS011;4909;42.680;26.324;2024-03-17T14:22:16;289.30;;;177.90;;
9739;SDS011;4909;42.680;26.324;2024-03-17T14:24:43;298.73;;;189.80;;
9739;SDS011;4909;42.680;26.324;2024-03-17T14:27:11;295.43;;;186.90;;
9739;SDS011;4909;42.680;26.324;2024-03-17T14:29:39;293.87;;;182.63;;
9739;SDS011;4909;42.680;26.324;2024-03-17T14:32:06;296.47;;;181.87;;